sensor_id;sensor_type;location;lat;lon;timestamp;temperature;humidity
62464;SHT31;48512;48.552;9.380;2023-04-03T00:01:32;5.47;73.58
62464;SHT31;48512;48.552;9.380;2023-04-03T00:04:02;5.47;73.17
62464;SHT31;48512;48.552;9.380;2023-04-03T00:06:28;5.55;73.11
62464;SHT31;48512;48.552;9.380;2023-04-03T00:08:54;5.46;73.49
62464;SHT31;48512;48.552;9.380;2023-04-03T00:11:20;5.34;73.84
62464;SHT31;48512;48.552;9.380;2023-04-03T00:13:46;5.40;73.60
62464;SHT31;48512;48.552;9.380;2023-04-03T00:16:12;5.48;73.53
62464;SHT31;48512;48.552;9.380;2023-04-03T00:18:39;5.47;73.52
62464;SHT31;48512;48.552;9.380;2023-04-03T00:21:06;5.50;73.85
62464;SHT31;48512;48.552;9.380;2023-04-03T00:23:33;5.54;73.58
62464;SHT31;48512;48.552;9.380;2023-04-03T00:25:59;5.58;73.20
62464;SHT31;48512;48.552;9.380;2023-04-03T00:28:25;5.61;73.32
62464;SHT31;48512;48.552;9.380;2023-04-03T00:30:52;5.47;73.34
62464;SHT31;48512;48.552;9.380;2023-04-03T00:33:19;5.37;73.56
62464;SHT31;48512;48.552;9.380;2023-04-03T00:35:48;5.43;73.70
62464;SHT31;48512;48.552;9.380;2023-04-03T00:38:14;5.37;73.85
62464;SHT31;48512;48.552;9.380;2023-04-03T00:40:43;5.46;73.61
62464;SHT31;48512;48.552;9.380;2023-04-03T00:43:19;5.57;73.34
62464;SHT31;48512;48.552;9.380;2023-04-03T00:45:56;5.27;73.66
62464;SHT31;48512;48.552;9.380;2023-04-03T00:48:28;5.24;73.97
62464;SHT31;48512;48.552;9.380;2023-04-03T00:50:55;5.16;74.35
62464;SHT31;48512;48.552;9.380;2023-04-03T00:53:26;5.05;74.49
62464;SHT31;48512;48.552;9.380;2023-04-03T00:55:54;5.23;74.06
62464;SHT31;48512;48.552;9.380;2023-04-03T00:58:28;5.24;73.87
62464;SHT31;48512;48.552;9.380;2023-04-03T01:00:58;5.19;74.12
62464;SHT31;48512;48.552;9.380;2023-04-03T01:03:25;5.24;74.21
62464;SHT31;48512;48.552;9.380;2023-04-03T01:05:53;5.27;74.44
62464;SHT31;48512;48.552;9.380;2023-04-03T01:08:20;5.27;73.98
62464;SHT31;48512;48.552;9.380;2023-04-03T01:10:46;5.33;74.06
62464;SHT31;48512;48.552;9.380;2023-04-03T01:13:28;5.23;74.44
62464;SHT31;48512;48.552;9.380;2023-04-03T01:15:56;5.20;74.27
62464;SHT31;48512;48.552;9.380;2023-04-03T01:18:24;5.22;74.31
62464;SHT31;48512;48.552;9.380;2023-04-03T01:26:09;5.30;74.43
62464;SHT31;48512;48.552;9.380;2023-04-03T01:28:37;5.43;73.73
62464;SHT31;48512;48.552;9.380;2023-04-03T01:33:54;5.13;74.67
62464;SHT31;48512;48.552;9.380;2023-04-03T01:36:26;5.17;74.54
62464;SHT31;48512;48.552;9.380;2023-04-03T01:38:54;5.30;74.49
62464;SHT31;48512;48.552;9.380;2023-04-03T01:41:20;5.16;74.52
62464;SHT31;48512;48.552;9.380;2023-04-03T01:43:48;5.07;74.71
62464;SHT31;48512;48.552;9.380;2023-04-03T01:46:15;5.10;74.77
62464;SHT31;48512;48.552;9.380;2023-04-03T01:48:42;5.07;74.49
62464;SHT31;48512;48.552;9.380;2023-04-03T01:51:09;5.05;74.44
62464;SHT31;48512;48.552;9.380;2023-04-03T01:53:35;5.13;74.27
62464;SHT31;48512;48.552;9.380;2023-04-03T01:56:01;5.06;74.38
62464;SHT31;48512;48.552;9.380;2023-04-03T01:58:29;5.01;74.54
62464;SHT31;48512;48.552;9.380;2023-04-03T02:00:55;5.05;74.79
62464;SHT31;48512;48.552;9.380;2023-04-03T02:03:22;5.07;74.56
62464;SHT31;48512;48.552;9.380;2023-04-03T02:05:49;5.12;74.31
62464;SHT31;48512;48.552;9.380;2023-04-03T02:08:16;5.05;74.45
62464;SHT31;48512;48.552;9.380;2023-04-03T02:10:48;5.17;73.51
62464;SHT31;48512;48.552;9.380;2023-04-03T02:13:15;5.16;73.46
62464;SHT31;48512;48.552;9.380;2023-04-03T02:15:41;4.92;74.42
62464;SHT31;48512;48.552;9.380;2023-04-03T02:18:08;4.92;74.51
62464;SHT31;48512;48.552;9.380;2023-04-03T02:20:34;4.83;74.50
62464;SHT31;48512;48.552;9.380;2023-04-03T02:23:00;4.95;73.80
62464;SHT31;48512;48.552;9.380;2023-04-03T02:25:27;4.93;73.65
62464;SHT31;48512;48.552;9.380;2023-04-03T02:27:53;4.90;73.87
62464;SHT31;48512;48.552;9.380;2023-04-03T02:30:19;4.80;74.15
62464;SHT31;48512;48.552;9.380;2023-04-03T02:32:45;4.82;72.90
62464;SHT31;48512;48.552;9.380;2023-04-03T02:35:12;4.72;72.96
62464;SHT31;48512;48.552;9.380;2023-04-03T02:37:39;4.68;73.20
62464;SHT31;48512;48.552;9.380;2023-04-03T02:40:07;4.71;73.30
62464;SHT31;48512;48.552;9.380;2023-04-03T02:42:34;4.75;73.19
62464;SHT31;48512;48.552;9.380;2023-04-03T02:45:03;4.76;73.53
62464;SHT31;48512;48.552;9.380;2023-04-03T02:47:29;4.62;74.37
62464;SHT31;48512;48.552;9.380;2023-04-03T02:49:55;4.60;74.67
62464;SHT31;48512;48.552;9.380;2023-04-03T02:52:22;4.40;75.36
62464;SHT31;48512;48.552;9.380;2023-04-03T02:54:49;4.50;74.95
62464;SHT31;48512;48.552;9.380;2023-04-03T02:57:15;4.50;74.22
62464;SHT31;48512;48.552;9.380;2023-04-03T02:59:41;4.44;74.22
62464;SHT31;48512;48.552;9.380;2023-04-03T03:02:09;4.45;74.13
62464;SHT31;48512;48.552;9.380;2023-04-03T03:04:36;4.41;74.35
62464;SHT31;48512;48.552;9.380;2023-04-03T03:07:03;4.40;74.45
62464;SHT31;48512;48.552;9.380;2023-04-03T03:09:29;4.55;73.95
62464;SHT31;48512;48.552;9.380;2023-04-03T03:11:56;4.58;74.07
62464;SHT31;48512;48.552;9.380;2023-04-03T03:14:22;4.60;73.82
62464;SHT31;48512;48.552;9.380;2023-04-03T03:16:49;4.67;73.78
62464;SHT31;48512;48.552;9.380;2023-04-03T03:19:15;4.72;73.89
62464;SHT31;48512;48.552;9.380;2023-04-03T03:21:41;4.76;73.40
62464;SHT31;48512;48.552;9.380;2023-04-03T03:24:08;4.79;73.10
62464;SHT31;48512;48.552;9.380;2023-04-03T03:26:34;4.69;72.38
62464;SHT31;48512;48.552;9.380;2023-04-03T03:29:02;4.75;72.56
62464;SHT31;48512;48.552;9.380;2023-04-03T03:31:29;4.64;73.22
62464;SHT31;48512;48.552;9.380;2023-04-03T03:33:55;4.72;72.93
62464;SHT31;48512;48.552;9.380;2023-04-03T03:36:22;4.69;72.18
62464;SHT31;48512;48.552;9.380;2023-04-03T03:38:48;4.69;71.38
62464;SHT31;48512;48.552;9.380;2023-04-03T03:41:14;4.76;71.90
62464;SHT31;48512;48.552;9.380;2023-04-03T03:43:43;4.79;71.90
62464;SHT31;48512;48.552;9.380;2023-04-03T03:46:10;4.83;71.65
62464;SHT31;48512;48.552;9.380;2023-04-03T03:48:36;4.89;71.37
62464;SHT31;48512;48.552;9.380;2023-04-03T03:51:02;4.86;71.76
62464;SHT31;48512;48.552;9.380;2023-04-03T03:53:32;4.93;71.35
62464;SHT31;48512;48.552;9.380;2023-04-03T03:56:04;4.90;71.46
62464;SHT31;48512;48.552;9.380;2023-04-03T03:58:31;4.86;70.95
62464;SHT31;48512;48.552;9.380;2023-04-03T04:01:05;4.78;70.80
62464;SHT31;48512;48.552;9.380;2023-04-03T04:03:33;4.67;71.57
62464;SHT31;48512;48.552;9.380;2023-04-03T04:05:59;4.71;71.41
62464;SHT31;48512;48.552;9.380;2023-04-03T04:08:25;4.71;71.45
62464;SHT31;48512;48.552;9.380;2023-04-03T04:10:51;4.65;71.95
62464;SHT31;48512;48.552;9.380;2023-04-03T04:13:18;4.69;71.56
62464;SHT31;48512;48.552;9.380;2023-04-03T04:15:44;4.68;71.95
62464;SHT31;48512;48.552;9.380;2023-04-03T04:18:11;4.65;72.12
62464;SHT31;48512;48.552;9.380;2023-04-03T04:20:37;4.78;70.38
62464;SHT31;48512;48.552;9.380;2023-04-03T04:23:04;4.69;70.55
62464;SHT31;48512;48.552;9.380;2023-04-03T04:25:31;4.71;71.46
62464;SHT31;48512;48.552;9.380;2023-04-03T04:27:57;4.75;71.82
62464;SHT31;48512;48.552;9.380;2023-04-03T04:30:23;4.73;71.62
62464;SHT31;48512;48.552;9.380;2023-04-03T04:32:50;4.73;71.64
62464;SHT31;48512;48.552;9.380;2023-04-03T04:35:17;4.72;71.84
62464;SHT31;48512;48.552;9.380;2023-04-03T04:37:46;4.80;71.80
62464;SHT31;48512;48.552;9.380;2023-04-03T04:40:12;4.72;72.49
62464;SHT31;48512;48.552;9.380;2023-04-03T04:42:39;4.80;71.54
62464;SHT31;48512;48.552;9.380;2023-04-03T04:45:06;4.69;72.13
62464;SHT31;48512;48.552;9.380;2023-04-03T04:47:33;4.76;71.86
62464;SHT31;48512;48.552;9.380;2023-04-03T04:50:00;4.64;71.52
62464;SHT31;48512;48.552;9.380;2023-04-03T04:52:26;4.52;70.13
62464;SHT31;48512;48.552;9.380;2023-04-03T04:54:53;4.58;68.46
62464;SHT31;48512;48.552;9.380;2023-04-03T04:57:19;4.52;69.17
62464;SHT31;48512;48.552;9.380;2023-04-03T04:59:47;4.54;69.62
62464;SHT31;48512;48.552;9.380;2023-04-03T05:02:13;4.57;69.30
62464;SHT31;48512;48.552;9.380;2023-04-03T05:04:41;4.42;67.92
62464;SHT31;48512;48.552;9.380;2023-04-03T05:07:13;4.58;66.64
62464;SHT31;48512;48.552;9.380;2023-04-03T05:09:39;4.51;65.64
62464;SHT31;48512;48.552;9.380;2023-04-03T05:12:08;4.41;66.10
62464;SHT31;48512;48.552;9.380;2023-04-03T05:14:40;4.40;66.15
62464;SHT31;48512;48.552;9.380;2023-04-03T05:17:08;4.36;65.37
62464;SHT31;48512;48.552;9.380;2023-04-03T05:19:38;4.44;64.80
62464;SHT31;48512;48.552;9.380;2023-04-03T05:22:05;4.51;65.08
62464;SHT31;48512;48.552;9.380;2023-04-03T05:24:32;4.47;64.81
62464;SHT31;48512;48.552;9.380;2023-04-03T05:26:59;4.86;62.98
62464;SHT31;48512;48.552;9.380;2023-04-03T05:29:26;4.68;62.21
62464;SHT31;48512;48.552;9.380;2023-04-03T05:31:52;4.50;62.27
62464;SHT31;48512;48.552;9.380;2023-04-03T05:34:19;4.55;62.98
62464;SHT31;48512;48.552;9.380;2023-04-03T05:36:47;4.48;62.64
62464;SHT31;48512;48.552;9.380;2023-04-03T05:39:15;4.42;62.29
62464;SHT31;48512;48.552;9.380;2023-04-03T05:41:43;4.55;63.42
62464;SHT31;48512;48.552;9.380;2023-04-03T05:44:09;4.57;62.90
62464;SHT31;48512;48.552;9.380;2023-04-03T05:46:35;4.69;60.98
62464;SHT31;48512;48.552;9.380;2023-04-03T05:49:05;4.69;60.82
62464;SHT31;48512;48.552;9.380;2023-04-03T05:51:39;4.62;61.69
62464;SHT31;48512;48.552;9.380;2023-04-03T05:54:28;4.69;64.06
62464;SHT31;48512;48.552;9.380;2023-04-03T05:57:02;4.75;65.54
62464;SHT31;48512;48.552;9.380;2023-04-03T05:59:28;4.71;66.13
62464;SHT31;48512;48.552;9.380;2023-04-03T06:01:57;4.85;65.24
62464;SHT31;48512;48.552;9.380;2023-04-03T06:04:24;4.89;64.71
62464;SHT31;48512;48.552;9.380;2023-04-03T06:06:53;4.93;64.87
62464;SHT31;48512;48.552;9.380;2023-04-03T06:09:21;5.05;66.02
62464;SHT31;48512;48.552;9.380;2023-04-03T06:11:48;4.89;66.71
62464;SHT31;48512;48.552;9.380;2023-04-03T06:14:15;4.79;67.53
62464;SHT31;48512;48.552;9.380;2023-04-03T06:16:41;4.68;67.78
62464;SHT31;48512;48.552;9.380;2023-04-03T06:19:08;4.69;68.36
62464;SHT31;48512;48.552;9.380;2023-04-03T06:21:37;4.78;67.49
62464;SHT31;48512;48.552;9.380;2023-04-03T06:24:04;4.38;68.93
62464;SHT31;48512;48.552;9.380;2023-04-03T06:26:32;4.47;69.19
62464;SHT31;48512;48.552;9.380;2023-04-03T06:28:59;4.45;69.74
62464;SHT31;48512;48.552;9.380;2023-04-03T06:31:25;4.55;69.37
62464;SHT31;48512;48.552;9.380;2023-04-03T06:33:52;4.57;69.50
62464;SHT31;48512;48.552;9.380;2023-04-03T06:36:19;4.62;69.32
62464;SHT31;48512;48.552;9.380;2023-04-03T06:38:47;4.83;69.52
62464;SHT31;48512;48.552;9.380;2023-04-03T06:41:13;4.68;68.77
62464;SHT31;48512;48.552;9.380;2023-04-03T06:43:40;4.89;68.78
62464;SHT31;48512;48.552;9.380;2023-04-03T06:46:06;4.80;69.20
62464;SHT31;48512;48.552;9.380;2023-04-03T06:48:32;4.82;68.42
62464;SHT31;48512;48.552;9.380;2023-04-03T06:50:58;5.09;68.20
62464;SHT31;48512;48.552;9.380;2023-04-03T06:53:25;6.99;84.98
62464;SHT31;48512;48.552;9.380;2023-04-03T06:55:51;5.88;65.60
62464;SHT31;48512;48.552;9.380;2023-04-03T06:58:17;5.84;65.50
62464;SHT31;48512;48.552;9.380;2023-04-03T07:00:43;5.78;65.75
62464;SHT31;48512;48.552;9.380;2023-04-03T07:03:09;5.48;66.85
62464;SHT31;48512;48.552;9.380;2023-04-03T07:05:35;5.38;66.53
62464;SHT31;48512;48.552;9.380;2023-04-03T07:08:02;5.44;66.93
62464;SHT31;48512;48.552;9.380;2023-04-03T07:10:28;5.23;67.11
62464;SHT31;48512;48.552;9.380;2023-04-03T07:12:54;5.24;66.76
62464;SHT31;48512;48.552;9.380;2023-04-03T07:15:20;5.36;67.00
62464;SHT31;48512;48.552;9.380;2023-04-03T07:17:46;5.28;66.64
62464;SHT31;48512;48.552;9.380;2023-04-03T07:20:12;5.43;66.90
62464;SHT31;48512;48.552;9.380;2023-04-03T07:22:39;5.46;66.82
62464;SHT31;48512;48.552;9.380;2023-04-03T07:25:05;5.55;66.36
62464;SHT31;48512;48.552;9.380;2023-04-03T07:27:33;5.58;66.49
62464;SHT31;48512;48.552;9.380;2023-04-03T07:29:59;5.71;66.14
62464;SHT31;48512;48.552;9.380;2023-04-03T07:32:25;5.82;65.95
62464;SHT31;48512;48.552;9.380;2023-04-03T07:34:51;5.74;65.62
62464;SHT31;48512;48.552;9.380;2023-04-03T07:37:18;5.78;65.88
62464;SHT31;48512;48.552;9.380;2023-04-03T07:39:44;5.78;65.95
62464;SHT31;48512;48.552;9.380;2023-04-03T07:42:10;6.02;66.22
62464;SHT31;48512;48.552;9.380;2023-04-03T07:44:38;6.09;65.86
62464;SHT31;48512;48.552;9.380;2023-04-03T07:47:04;6.12;66.15
62464;SHT31;48512;48.552;9.380;2023-04-03T07:49:30;5.62;66.69
62464;SHT31;48512;48.552;9.380;2023-04-03T07:51:57;5.82;66.30
62464;SHT31;48512;48.552;9.380;2023-04-03T07:54:24;5.71;66.83
62464;SHT31;48512;48.552;9.380;2023-04-03T07:56:50;5.76;66.52
62464;SHT31;48512;48.552;9.380;2023-04-03T07:59:16;5.93;66.49
62464;SHT31;48512;48.552;9.380;2023-04-03T08:01:42;6.13;65.57
62464;SHT31;48512;48.552;9.380;2023-04-03T08:04:09;6.12;66.00
62464;SHT31;48512;48.552;9.380;2023-04-03T08:06:36;5.96;65.44
62464;SHT31;48512;48.552;9.380;2023-04-03T08:09:04;5.92;67.06
62464;SHT31;48512;48.552;9.380;2023-04-03T08:11:30;6.06;66.40
62464;SHT31;48512;48.552;9.380;2023-04-03T08:13:56;6.09;65.80
62464;SHT31;48512;48.552;9.380;2023-04-03T08:16:23;6.37;65.60
62464;SHT31;48512;48.552;9.380;2023-04-03T08:18:53;6.41;65.40
62464;SHT31;48512;48.552;9.380;2023-04-03T08:21:20;6.40;64.08
62464;SHT31;48512;48.552;9.380;2023-04-03T08:23:48;6.47;63.32
62464;SHT31;48512;48.552;9.380;2023-04-03T08:26:18;6.36;64.45
62464;SHT31;48512;48.552;9.380;2023-04-03T08:28:45;6.45;64.41
62464;SHT31;48512;48.552;9.380;2023-04-03T08:31:14;6.63;63.73
62464;SHT31;48512;48.552;9.380;2023-04-03T08:33:41;6.53;63.48
62464;SHT31;48512;48.552;9.380;2023-04-03T08:36:17;6.63;63.71
62464;SHT31;48512;48.552;9.380;2023-04-03T08:38:43;6.68;62.97
62464;SHT31;48512;48.552;9.380;2023-04-03T08:49:37;6.91;62.51
62464;SHT31;48512;48.552;9.380;2023-04-03T08:52:11;6.88;61.97
62464;SHT31;48512;48.552;9.380;2023-04-03T08:55:02;6.87;62.78
62464;SHT31;48512;48.552;9.380;2023-04-03T08:57:33;6.75;63.83
62464;SHT31;48512;48.552;9.380;2023-04-03T09:00:05;6.75;63.75
62464;SHT31;48512;48.552;9.380;2023-04-03T09:02:54;6.95;63.52
62464;SHT31;48512;48.552;9.380;2023-04-03T09:08:31;6.98;64.62
62464;SHT31;48512;48.552;9.380;2023-04-03T09:21:38;7.03;62.48
62464;SHT31;48512;48.552;9.380;2023-04-03T09:24:10;7.26;61.63
62464;SHT31;48512;48.552;9.380;2023-04-03T09:26:48;7.34;61.93
62464;SHT31;48512;48.552;9.380;2023-04-03T09:29:22;7.39;62.17
62464;SHT31;48512;48.552;9.380;2023-04-03T09:31:52;7.46;61.84
62464;SHT31;48512;48.552;9.380;2023-04-03T09:34:25;7.58;61.10
62464;SHT31;48512;48.552;9.380;2023-04-03T09:36:54;7.70;62.30
62464;SHT31;48512;48.552;9.380;2023-04-03T09:39:24;7.70;61.75
62464;SHT31;48512;48.552;9.380;2023-04-03T09:44:28;7.60;61.16
62464;SHT31;48512;48.552;9.380;2023-04-03T09:46:54;7.68;61.10
62464;SHT31;48512;48.552;9.380;2023-04-03T09:49:21;7.61;61.16
62464;SHT31;48512;48.552;9.380;2023-04-03T09:51:47;7.60;59.71
62464;SHT31;48512;48.552;9.380;2023-04-03T09:56:53;7.75;59.51
62464;SHT31;48512;48.552;9.380;2023-04-03T09:59:19;7.74;60.39
62464;SHT31;48512;48.552;9.380;2023-04-03T10:02:02;7.78;58.31
62464;SHT31;48512;48.552;9.380;2023-04-03T10:04:40;7.44;58.94
62464;SHT31;48512;48.552;9.380;2023-04-03T10:07:29;7.75;59.23
62464;SHT31;48512;48.552;9.380;2023-04-03T10:10:17;7.50;59.10
62464;SHT31;48512;48.552;9.380;2023-04-03T10:12:43;7.70;58.36
62464;SHT31;48512;48.552;9.380;2023-04-03T10:15:14;7.61;58.50
62464;SHT31;48512;48.552;9.380;2023-04-03T10:20:45;7.37;58.75
62464;SHT31;48512;48.552;9.380;2023-04-03T10:33:44;8.03;56.40
62464;SHT31;48512;48.552;9.380;2023-04-03T10:42:05;7.96;57.00
62464;SHT31;48512;48.552;9.380;2023-04-03T10:50:44;8.12;56.88
62464;SHT31;48512;48.552;9.380;2023-04-03T10:53:24;8.03;56.29
62464;SHT31;48512;48.552;9.380;2023-04-03T10:56:14;7.77;56.92
62464;SHT31;48512;48.552;9.380;2023-04-03T10:58:45;7.75;57.97
62464;SHT31;48512;48.552;9.380;2023-04-03T11:01:18;7.82;57.92
62464;SHT31;48512;48.552;9.380;2023-04-03T11:03:53;7.78;56.98
62464;SHT31;48512;48.552;9.380;2023-04-03T11:06:23;7.88;57.56
62464;SHT31;48512;48.552;9.380;2023-04-03T11:08:57;8.07;57.17
62464;SHT31;48512;48.552;9.380;2023-04-03T11:11:32;7.91;56.65
62464;SHT31;48512;48.552;9.380;2023-04-03T11:14:26;7.68;56.78
62464;SHT31;48512;48.552;9.380;2023-04-03T11:19:41;7.89;56.95
62464;SHT31;48512;48.552;9.380;2023-04-03T11:25:26;7.66;56.63
62464;SHT31;48512;48.552;9.380;2023-04-03T11:27:58;7.54;56.72
62464;SHT31;48512;48.552;9.380;2023-04-03T11:35:58;7.74;56.34
62464;SHT31;48512;48.552;9.380;2023-04-03T11:38:31;7.81;57.09
62464;SHT31;48512;48.552;9.380;2023-04-03T11:41:06;7.82;54.95
62464;SHT31;48512;48.552;9.380;2023-04-03T11:43:36;7.96;55.08
62464;SHT31;48512;48.552;9.380;2023-04-03T11:46:06;7.94;55.67
62464;SHT31;48512;48.552;9.380;2023-04-03T11:53:54;7.99;55.43
62464;SHT31;48512;48.552;9.380;2023-04-03T12:04:25;7.84;53.07
62464;SHT31;48512;48.552;9.380;2023-04-03T12:07:11;7.77;54.05
62464;SHT31;48512;48.552;9.380;2023-04-03T12:12:37;7.91;54.45
62464;SHT31;48512;48.552;9.380;2023-04-03T12:18:42;7.89;54.34
62464;SHT31;48512;48.552;9.380;2023-04-03T12:21:10;7.99;53.57
62464;SHT31;48512;48.552;9.380;2023-04-03T12:24:04;8.10;53.63
62464;SHT31;48512;48.552;9.380;2023-04-03T12:26:46;8.22;53.58
62464;SHT31;48512;48.552;9.380;2023-04-03T12:29:27;8.23;53.12
62464;SHT31;48512;48.552;9.380;2023-04-03T12:43:17;7.98;52.42
62464;SHT31;48512;48.552;9.380;2023-04-03T12:45:51;8.10;52.82
62464;SHT31;48512;48.552;9.380;2023-04-03T12:48:25;7.91;52.72
62464;SHT31;48512;48.552;9.380;2023-04-03T12:50:52;7.81;52.90
62464;SHT31;48512;48.552;9.380;2023-04-03T12:53:22;8.03;53.06
62464;SHT31;48512;48.552;9.380;2023-04-03T12:56:19;8.07;52.17
62464;SHT31;48512;48.552;9.380;2023-04-03T12:58:42;7.82;52.40
62464;SHT31;48512;48.552;9.380;2023-04-03T13:03:36;7.91;53.62
62464;SHT31;48512;48.552;9.380;2023-04-03T13:06:04;7.92;52.79
62464;SHT31;48512;48.552;9.380;2023-04-03T13:08:30;8.07;52.37
62464;SHT31;48512;48.552;9.380;2023-04-03T13:11:09;8.12;52.95
62464;SHT31;48512;48.552;9.380;2023-04-03T13:13:37;8.19;52.64
62464;SHT31;48512;48.552;9.380;2023-04-03T13:16:10;8.17;53.05
62464;SHT31;48512;48.552;9.380;2023-04-03T13:18:37;8.07;53.12
62464;SHT31;48512;48.552;9.380;2023-04-03T13:21:29;8.25;52.76
62464;SHT31;48512;48.552;9.380;2023-04-03T13:23:58;8.32;52.47
62464;SHT31;48512;48.552;9.380;2023-04-03T13:26:29;7.91;52.30
62464;SHT31;48512;48.552;9.380;2023-04-03T13:29:01;7.98;52.59
62464;SHT31;48512;48.552;9.380;2023-04-03T13:31:39;7.89;52.79
62464;SHT31;48512;48.552;9.380;2023-04-03T13:36:59;7.91;53.20
62464;SHT31;48512;48.552;9.380;2023-04-03T13:39:29;7.98;53.06
62464;SHT31;48512;48.552;9.380;2023-04-03T13:42:22;7.96;52.65
62464;SHT31;48512;48.552;9.380;2023-04-03T13:44:49;8.06;52.81
62464;SHT31;48512;48.552;9.380;2023-04-03T13:47:42;8.47;51.44
62464;SHT31;48512;48.552;9.380;2023-04-03T13:52:50;8.72;52.23
62464;SHT31;48512;48.552;9.380;2023-04-03T13:58:24;8.77;49.71
62464;SHT31;48512;48.552;9.380;2023-04-03T14:06:17;8.67;50.86
62464;SHT31;48512;48.552;9.380;2023-04-03T14:08:44;8.56;51.59
62464;SHT31;48512;48.552;9.380;2023-04-03T14:11:17;8.71;52.26
62464;SHT31;48512;48.552;9.380;2023-04-03T14:13:45;8.63;51.86
62464;SHT31;48512;48.552;9.380;2023-04-03T14:16:21;8.67;50.82
62464;SHT31;48512;48.552;9.380;2023-04-03T14:18:49;8.64;51.26
62464;SHT31;48512;48.552;9.380;2023-04-03T14:21:17;8.74;50.77
62464;SHT31;48512;48.552;9.380;2023-04-03T14:23:44;8.78;50.18
62464;SHT31;48512;48.552;9.380;2023-04-03T14:26:16;8.64;49.97
62464;SHT31;48512;48.552;9.380;2023-04-03T14:28:45;8.72;51.08
62464;SHT31;48512;48.552;9.380;2023-04-03T14:31:12;8.64;50.75
62464;SHT31;48512;48.552;9.380;2023-04-03T14:33:38;8.46;50.61
62464;SHT31;48512;48.552;9.380;2023-04-03T14:36:12;8.60;50.41
62464;SHT31;48512;48.552;9.380;2023-04-03T14:38:39;8.54;49.87
62464;SHT31;48512;48.552;9.380;2023-04-03T14:41:07;8.54;50.79
62464;SHT31;48512;48.552;9.380;2023-04-03T14:43:33;8.81;48.79
62464;SHT31;48512;48.552;9.380;2023-04-03T14:46:00;8.57;49.92
62464;SHT31;48512;48.552;9.380;2023-04-03T14:48:27;8.59;49.80
62464;SHT31;48512;48.552;9.380;2023-04-03T14:50:54;8.75;49.51
62464;SHT31;48512;48.552;9.380;2023-04-03T14:53:20;8.75;49.50
62464;SHT31;48512;48.552;9.380;2023-04-03T14:55:51;8.36;50.32
62464;SHT31;48512;48.552;9.380;2023-04-03T14:58:19;8.52;50.39
62464;SHT31;48512;48.552;9.380;2023-04-03T15:00:46;8.36;51.09
62464;SHT31;48512;48.552;9.380;2023-04-03T15:03:19;8.30;50.26
62464;SHT31;48512;48.552;9.380;2023-04-03T15:05:46;8.16;50.38
62464;SHT31;48512;48.552;9.380;2023-04-03T15:10:43;8.13;50.41
62464;SHT31;48512;48.552;9.380;2023-04-03T15:13:11;8.40;50.36
62464;SHT31;48512;48.552;9.380;2023-04-03T15:15:38;8.37;49.11
62464;SHT31;48512;48.552;9.380;2023-04-03T15:18:04;8.25;50.10
62464;SHT31;48512;48.552;9.380;2023-04-03T15:20:31;8.42;49.49
62464;SHT31;48512;48.552;9.380;2023-04-03T15:23:00;8.44;50.25
62464;SHT31;48512;48.552;9.380;2023-04-03T15:25:31;9.56;74.63
62464;SHT31;48512;48.552;9.380;2023-04-03T15:27:57;9.84;55.59
62464;SHT31;48512;48.552;9.380;2023-04-03T15:30:24;9.60;50.00
62464;SHT31;48512;48.552;9.380;2023-04-03T15:32:50;9.25;47.94
62464;SHT31;48512;48.552;9.380;2023-04-03T15:35:16;9.01;49.22
62464;SHT31;48512;48.552;9.380;2023-04-03T15:37:43;8.63;49.14
62464;SHT31;48512;48.552;9.380;2023-04-03T15:40:10;8.59;49.66
62464;SHT31;48512;48.552;9.380;2023-04-03T15:42:36;8.65;49.58
62464;SHT31;48512;48.552;9.380;2023-04-03T15:45:03;8.68;49.19
62464;SHT31;48512;48.552;9.380;2023-04-03T15:47:29;8.56;49.47
62464;SHT31;48512;48.552;9.380;2023-04-03T15:49:56;8.43;49.43
62464;SHT31;48512;48.552;9.380;2023-04-03T15:52:22;8.53;48.86
62464;SHT31;48512;48.552;9.380;2023-04-03T15:54:48;8.33;49.60
62464;SHT31;48512;48.552;9.380;2023-04-03T15:57:15;8.29;49.06
62464;SHT31;48512;48.552;9.380;2023-04-03T15:59:41;8.36;48.86
62464;SHT31;48512;48.552;9.380;2023-04-03T16:02:09;8.54;47.89
62464;SHT31;48512;48.552;9.380;2023-04-03T16:04:36;8.29;48.36
62464;SHT31;48512;48.552;9.380;2023-04-03T16:07:03;8.43;47.17
62464;SHT31;48512;48.552;9.380;2023-04-03T16:09:31;8.30;47.50
62464;SHT31;48512;48.552;9.380;2023-04-03T16:11:58;8.43;47.86
62464;SHT31;48512;48.552;9.380;2023-04-03T16:14:24;8.53;52.03
62464;SHT31;48512;48.552;9.380;2023-04-03T16:16:51;8.56;48.83
62464;SHT31;48512;48.552;9.380;2023-04-03T16:19:17;9.40;67.97
62464;SHT31;48512;48.552;9.380;2023-04-03T16:21:43;10.56;64.01
62464;SHT31;48512;48.552;9.380;2023-04-03T16:24:09;11.55;60.52
62464;SHT31;48512;48.552;9.380;2023-04-03T16:26:36;11.29;45.09
62464;SHT31;48512;48.552;9.380;2023-04-03T16:29:02;10.94;44.41
62464;SHT31;48512;48.552;9.380;2023-04-03T16:31:28;10.63;44.54
62464;SHT31;48512;48.552;9.380;2023-04-03T16:33:55;10.50;44.21
62464;SHT31;48512;48.552;9.380;2023-04-03T16:36:22;10.57;44.62
62464;SHT31;48512;48.552;9.380;2023-04-03T16:38:49;10.60;44.70
62464;SHT31;48512;48.552;9.380;2023-04-03T16:41:15;10.24;44.53
62464;SHT31;48512;48.552;9.380;2023-04-03T16:43:41;9.88;45.19
62464;SHT31;48512;48.552;9.380;2023-04-03T16:46:08;9.61;45.40
62464;SHT31;48512;48.552;9.380;2023-04-03T16:48:34;9.25;46.10
62464;SHT31;48512;48.552;9.380;2023-04-03T16:51:00;9.05;46.40
62464;SHT31;48512;48.552;9.380;2023-04-03T16:53:27;8.93;47.02
62464;SHT31;48512;48.552;9.380;2023-04-03T16:55:54;8.78;46.77
62464;SHT31;48512;48.552;9.380;2023-04-03T16:58:20;8.63;47.61
62464;SHT31;48512;48.552;9.380;2023-04-03T17:00:46;8.85;47.33
62464;SHT31;48512;48.552;9.380;2023-04-03T17:03:13;9.11;47.04
62464;SHT31;48512;48.552;9.380;2023-04-03T17:05:39;9.20;45.91
62464;SHT31;48512;48.552;9.380;2023-04-03T17:08:05;8.81;46.50
62464;SHT31;48512;48.552;9.380;2023-04-03T17:10:31;8.67;46.94
62464;SHT31;48512;48.552;9.380;2023-04-03T17:12:59;8.50;47.81
62464;SHT31;48512;48.552;9.380;2023-04-03T17:15:25;8.29;50.02
62464;SHT31;48512;48.552;9.380;2023-04-03T17:17:52;8.34;49.45
62464;SHT31;48512;48.552;9.380;2023-04-03T17:20:19;8.28;49.78
62464;SHT31;48512;48.552;9.380;2023-04-03T17:22:45;8.33;48.99
62464;SHT31;48512;48.552;9.380;2023-04-03T17:25:12;8.23;49.41
62464;SHT31;48512;48.552;9.380;2023-04-03T17:27:39;8.52;58.65
62464;SHT31;48512;48.552;9.380;2023-04-03T17:30:06;8.44;50.10
62464;SHT31;48512;48.552;9.380;2023-04-03T17:32:33;8.34;48.68
62464;SHT31;48512;48.552;9.380;2023-04-03T17:35:00;8.03;49.38
62464;SHT31;48512;48.552;9.380;2023-04-03T17:37:26;7.94;49.26
62464;SHT31;48512;48.552;9.380;2023-04-03T17:39:52;7.92;49.22
62464;SHT31;48512;48.552;9.380;2023-04-03T17:42:19;7.60;48.73
62464;SHT31;48512;48.552;9.380;2023-04-03T17:44:46;7.51;47.27
62464;SHT31;48512;48.552;9.380;2023-04-03T17:47:12;7.39;48.34
62464;SHT31;48512;48.552;9.380;2023-04-03T17:49:38;7.40;49.71
62464;SHT31;48512;48.552;9.380;2023-04-03T17:52:04;7.33;50.36
62464;SHT31;48512;48.552;9.380;2023-04-03T17:54:31;7.37;48.32
62464;SHT31;48512;48.552;9.380;2023-04-03T17:56:57;7.18;50.31